首页
METAR-TAF:

METAR-TAF

机场 :

Bisbee Douglas International Airport

道格拉斯 / 比斯比, 亞利桑那州, 美国

纬度: 31-28-09N, 经度: 109-36-13W, 海拔: 1266米

当前天气观测

该预报发布于59分钟前的22:56 UTC
风速7节,风向西南,有时为16节阵风
温度 37°C
湿度 5%
气压 1012 hPa
能見度: 16.1公里
天空无云

METAR: KDUG 152256Z AUTO 23007G16KT 10SM CLR 37/M10 A2988 RMK AO2 SLP042 T03721100

时间: 16:55 (23:55 UTC)

预报

该预报发布于35分钟前的23:20 UTC
预报有效从16日的 00点(UTC)到 16日的 24点(UTC)
风速10节,风向西转西南,有时为18节阵风
能見度: 10公里
天空无云
从 16日的 0200点(UTC)
风速8节,风向西转西北
能見度: 10公里
天空无云
从 16日的 1000点(UTC)
风速4节,风向多变
能見度: 10公里
天空无云
从 16日的 2000点(UTC)
风速10节,风向西转西南,有时为18节阵风
能見度: 10公里
天空无云

TAF: KDUG 152320Z 1600/1624 25010G18KT P6SM SKC FM160200 29008KT P6SM SKC FM161000 VRB04KT P6SM SKC FM162000 24010G18KT P6SM SKC

超过4000个机场的气象观测和天气预报(METAR&TAF报告)。

可查询的气象台以黄色和红色小点在地图上表示。

将鼠标移到小点上方,可查看气象台名称。

然后点击查看天气观测和预报。

如需切换地图:点击带黑十字的绿色按钮放大地图;点击带横线的绿色按钮缩小地图;或者点击绿色箭头查看邻近地区的地图。


METAR-TAF: